createdAt,value
2022-10-11T00:01:43.060Z,99.90
2022-10-11T00:06:03.195Z,99.90
2022-10-11T00:10:20.757Z,99.90
2022-10-11T00:14:38.669Z,99.90
2022-10-11T00:18:56.117Z,99.90
2022-10-11T00:23:13.471Z,99.90
2022-10-11T00:27:30.709Z,99.90
2022-10-11T00:31:48.025Z,99.90
2022-10-11T00:36:06.437Z,99.90
2022-10-11T00:40:23.961Z,99.90
2022-10-11T00:44:45.529Z,99.90
2022-10-11T00:49:24.122Z,99.90
2022-10-11T00:53:41.738Z,99.90
2022-10-11T00:57:59.500Z,99.90
2022-10-11T01:02:18.229Z,99.90
2022-10-11T01:06:35.719Z,99.90
2022-10-11T01:10:53.234Z,99.90
2022-10-11T01:15:31.093Z,99.90
2022-10-11T01:20:25.105Z,99.90
2022-10-11T01:24:57.766Z,99.90
2022-10-11T01:29:23.978Z,99.90
2022-10-11T01:33:55.013Z,99.90
2022-10-11T01:38:35.176Z,99.90
2022-10-11T01:42:54.925Z,99.90
2022-10-11T01:47:12.148Z,99.90
2022-10-11T01:51:42.026Z,99.90
2022-10-11T01:56:19.750Z,99.90
2022-10-11T02:01:05.240Z,99.90
2022-10-11T02:05:47.475Z,99.90
2022-10-11T02:10:22.841Z,99.90
2022-10-11T02:14:43.617Z,99.90
2022-10-11T02:19:04.453Z,99.90
2022-10-11T02:23:27.933Z,99.90
2022-10-11T02:27:47.174Z,99.90
2022-10-11T02:32:05.965Z,99.90
2022-10-11T02:37:10.071Z,99.90
2022-10-11T02:41:36.421Z,99.90
2022-10-11T02:46:01.570Z,99.90
2022-10-11T02:50:19.063Z,99.90
2022-10-11T02:54:37.077Z,99.90
2022-10-11T02:58:54.329Z,99.90
2022-10-11T03:03:11.645Z,99.90
2022-10-11T03:07:28.847Z,99.90
2022-10-11T03:11:46.273Z,99.90
2022-10-11T03:16:03.945Z,99.90
2022-10-11T03:20:21.207Z,99.90
2022-10-11T03:24:38.379Z,99.90
2022-10-11T03:28:55.667Z,99.90
2022-10-11T03:33:12.893Z,99.90
2022-10-11T03:37:30.067Z,99.90
2022-10-11T03:41:47.330Z,99.90
2022-10-11T03:46:05.332Z,99.90
2022-10-11T03:50:22.703Z,99.90
2022-10-11T03:54:39.888Z,99.90
2022-10-11T03:58:57.188Z,99.90
2022-10-11T04:03:14.390Z,99.90
2022-10-11T04:07:31.823Z,99.90
2022-10-11T04:11:48.987Z,99.90
2022-10-11T04:16:07.186Z,99.90
2022-10-11T04:20:24.847Z,99.90
2022-10-11T04:24:42.106Z,99.90
2022-10-11T04:28:59.394Z,99.90
2022-10-11T04:33:16.678Z,99.90
2022-10-11T04:37:33.958Z,99.90
2022-10-11T04:41:51.299Z,99.90
2022-10-11T04:46:09.774Z,99.90
2022-10-11T04:50:27.517Z,99.90
2022-10-11T04:54:44.767Z,99.90
2022-10-11T04:59:02.205Z,99.90
2022-10-11T05:03:19.446Z,99.90
2022-10-11T05:07:36.646Z,99.90
2022-10-11T05:11:53.828Z,99.90
2022-10-11T05:16:12.527Z,99.90
2022-10-11T05:20:29.980Z,99.90
2022-10-11T05:24:47.165Z,99.90
2022-10-11T05:29:04.378Z,99.90
2022-10-11T05:33:23.183Z,99.90
2022-10-11T05:37:40.353Z,99.90
2022-10-11T05:41:57.428Z,99.90
2022-10-11T05:46:14.978Z,99.90
2022-10-11T05:50:32.987Z,99.90
2022-10-11T05:54:50.628Z,99.90
2022-10-11T05:59:07.785Z,99.90
2022-10-11T06:03:25.071Z,99.90
2022-10-11T06:07:42.428Z,99.90
2022-10-11T06:11:59.604Z,99.90
2022-10-11T06:16:16.804Z,99.90
2022-10-11T06:20:34.127Z,99.90
2022-10-11T06:24:51.294Z,99.90
2022-10-11T06:29:08.591Z,99.90
2022-10-11T06:33:25.787Z,99.90
2022-10-11T06:37:42.998Z,99.90
2022-10-11T06:42:00.348Z,99.90
2022-10-11T06:46:19.915Z,99.90
2022-10-11T06:50:59.220Z,99.90
2022-10-11T06:55:17.069Z,99.90
2022-10-11T06:59:34.329Z,99.90
2022-10-11T07:03:53.983Z,99.90
2022-10-11T07:08:11.190Z,99.90
2022-10-11T07:12:28.853Z,99.90
2022-10-11T07:16:46.114Z,99.90
2022-10-11T07:21:05.907Z,99.90
2022-10-11T07:25:23.123Z,99.90
2022-10-11T07:29:40.452Z,99.90
2022-10-11T07:33:57.723Z,99.90
2022-10-11T07:38:15.219Z,99.90
2022-10-11T07:42:33.482Z,99.90
2022-10-11T07:46:50.650Z,99.90
2022-10-11T07:51:11.064Z,99.90
2022-10-11T07:55:30.024Z,99.90
2022-10-11T07:59:50.209Z,99.90
2022-10-11T08:04:07.637Z,99.90
2022-10-11T08:08:24.825Z,99.90
2022-10-11T08:12:41.973Z,99.90
2022-10-11T08:16:59.675Z,99.90
2022-10-11T08:21:18.301Z,99.90
2022-10-11T08:25:40.824Z,99.90
2022-10-11T08:29:58.090Z,99.90
2022-10-11T08:34:15.349Z,99.90
2022-10-11T08:38:33.702Z,99.90
2022-10-11T08:43:28.890Z,99.90
2022-10-11T08:47:47.292Z,99.90
2022-10-11T08:52:12.630Z,99.90
2022-10-11T08:56:32.344Z,99.90
2022-10-11T09:00:53.826Z,99.90
2022-10-11T09:05:16.505Z,99.90
2022-10-11T09:10:16.947Z,99.90
2022-10-11T09:14:46.059Z,99.90
2022-10-11T09:19:30.599Z,99.90
2022-10-11T09:23:53.380Z,99.90
2022-10-11T09:28:42.649Z,99.90
2022-10-11T09:33:21.091Z,99.90
2022-10-11T09:37:42.362Z,99.90
2022-10-11T09:42:04.977Z,99.90
2022-10-11T09:46:41.398Z,99.90
2022-10-11T09:51:08.236Z,99.90
2022-10-11T09:55:39.451Z,99.90
2022-10-11T10:00:20.300Z,99.90
2022-10-11T10:04:54.107Z,99.90
2022-10-11T10:09:30.435Z,99.90
2022-10-11T10:13:56.232Z,99.90
2022-10-11T10:18:23.721Z,99.90
2022-10-11T10:22:40.960Z,99.90
2022-10-11T10:27:22.225Z,99.90
2022-10-11T10:32:12.448Z,99.90
2022-10-11T10:36:38.686Z,99.90
2022-10-11T10:40:58.809Z,99.90
2022-10-11T10:45:21.736Z,99.90
2022-10-11T10:49:54.511Z,99.40
2022-10-11T10:54:40.695Z,94.40
2022-10-11T10:59:02.642Z,93.50
2022-10-11T11:04:06.603Z,89.70
2022-10-11T11:08:46.649Z,90.80
2022-10-11T11:13:40.041Z,94.20
2022-10-11T11:18:06.291Z,97.40
2022-10-11T11:22:53.000Z,96.50
2022-10-11T11:27:16.747Z,91.30
2022-10-11T11:32:10.830Z,83.30
2022-10-11T11:36:36.786Z,86.80
2022-10-11T11:41:02.648Z,85.10
2022-10-11T11:45:24.878Z,86.00
2022-10-11T11:49:47.672Z,83.80
2022-10-11T11:54:38.634Z,83.50
2022-10-11T11:59:03.059Z,82.60
2022-10-11T12:03:41.298Z,78.50
2022-10-11T12:08:06.053Z,78.70
2022-10-11T12:12:36.076Z,78.90
2022-10-11T12:17:21.709Z,69.80
2022-10-11T12:21:43.246Z,75.80
2022-10-11T12:26:18.294Z,67.90
2022-10-11T12:30:44.505Z,70.80
2022-10-11T12:35:33.341Z,69.80
2022-10-11T12:39:57.046Z,65.40
2022-10-11T12:44:28.862Z,68.60
2022-10-11T12:49:15.029Z,72.30
2022-10-11T12:54:21.472Z,82.10
2022-10-11T12:58:41.187Z,82.80
2022-10-11T13:03:04.691Z,83.60
2022-10-11T13:07:23.627Z,83.60
2022-10-11T13:11:48.862Z,84.00
2022-10-11T13:16:14.090Z,85.40
2022-10-11T13:20:37.457Z,84.80
2022-10-11T13:24:57.973Z,85.40
2022-10-11T13:29:33.831Z,88.50
2022-10-11T13:33:57.041Z,89.70
2022-10-11T13:38:22.163Z,86.50
2022-10-11T13:42:39.539Z,87.70
2022-10-11T13:46:56.744Z,88.80
2022-10-11T13:51:34.218Z,88.10
2022-10-11T13:55:56.319Z,87.70
2022-10-11T14:00:17.421Z,89.80
2022-10-11T14:04:41.510Z,90.50
2022-10-11T14:08:59.437Z,87.80
2022-10-11T14:13:41.038Z,90.50
2022-10-11T14:17:59.168Z,90.70
2022-10-11T14:22:18.118Z,90.30
2022-10-11T14:26:39.618Z,90.50
2022-10-11T14:30:56.771Z,90.20
2022-10-11T14:35:20.727Z,88.50
2022-10-11T14:39:37.895Z,87.50
2022-10-11T14:43:56.511Z,86.80
2022-10-11T14:48:13.779Z,89.20
2022-10-11T14:52:31.064Z,91.30
2022-10-11T14:56:49.583Z,90.50
2022-10-11T15:01:06.942Z,88.10
2022-10-11T15:05:31.190Z,88.80
2022-10-11T15:09:50.815Z,89.80
2022-10-11T15:14:08.040Z,90.80
2022-10-11T15:18:25.258Z,91.60
2022-10-11T15:22:42.547Z,92.60
2022-10-11T15:26:59.705Z,92.20
2022-10-11T15:31:17.712Z,92.90
2022-10-11T15:35:34.959Z,94.60
2022-10-11T15:39:52.145Z,95.50
2022-10-11T15:44:09.427Z,96.70
2022-10-11T15:48:27.200Z,98.40
2022-10-11T15:52:45.174Z,99.60
2022-10-11T15:57:02.425Z,99.90
2022-10-11T16:01:20.487Z,99.90
2022-10-11T16:05:37.981Z,99.90
2022-10-11T16:09:55.488Z,99.90
2022-10-11T16:14:12.684Z,99.90
2022-10-11T16:18:35.081Z,99.90
2022-10-11T16:22:54.590Z,99.90
2022-10-11T16:27:14.217Z,99.90
2022-10-11T16:31:35.099Z,99.90
2022-10-11T16:35:52.330Z,99.90
2022-10-11T16:40:11.250Z,99.90
2022-10-11T16:44:28.382Z,99.90
2022-10-11T16:48:45.525Z,99.90
2022-10-11T16:53:02.791Z,99.90
2022-10-11T16:57:20.277Z,99.90
2022-10-11T17:01:38.041Z,99.90
2022-10-11T17:05:55.279Z,99.90
2022-10-11T17:10:12.481Z,99.90
2022-10-11T17:14:29.642Z,99.90
2022-10-11T17:18:46.966Z,99.90
2022-10-11T17:23:04.251Z,99.90
2022-10-11T17:27:21.634Z,99.90
2022-10-11T17:31:38.903Z,99.90
2022-10-11T17:35:57.955Z,99.90
2022-10-11T17:40:15.394Z,99.90
2022-10-11T17:44:32.563Z,99.90
2022-10-11T17:48:52.274Z,99.90
2022-10-11T17:53:09.445Z,99.90
2022-10-11T17:57:26.724Z,99.90
2022-10-11T18:01:44.047Z,99.90
2022-10-11T18:06:09.392Z,99.90
2022-10-11T18:10:27.448Z,99.90
2022-10-11T18:14:44.726Z,99.90
2022-10-11T18:19:04.055Z,99.90
2022-10-11T18:23:21.371Z,99.90
2022-10-11T18:27:38.573Z,99.90
2022-10-11T18:31:55.789Z,99.90
2022-10-11T18:36:16.256Z,99.90
2022-10-11T18:40:37.209Z,99.90
2022-10-11T18:44:54.771Z,99.90
2022-10-11T18:49:12.647Z,99.90
2022-10-11T18:53:30.293Z,99.90
2022-10-11T18:57:47.528Z,99.90
2022-10-11T19:02:04.946Z,99.90
2022-10-11T19:06:25.100Z,99.90
2022-10-11T19:10:42.285Z,99.90
2022-10-11T19:15:01.037Z,99.90
2022-10-11T19:19:19.187Z,99.90
2022-10-11T19:23:41.503Z,99.90
2022-10-11T19:27:58.689Z,99.90
2022-10-11T19:32:15.927Z,99.90
2022-10-11T19:36:36.664Z,99.90
2022-10-11T19:40:54.230Z,99.90
2022-10-11T19:45:11.540Z,99.90
2022-10-11T19:49:31.848Z,99.90
2022-10-11T19:53:57.709Z,99.90
2022-10-11T19:58:14.895Z,99.90
2022-10-11T20:02:33.284Z,99.90
2022-10-11T20:06:50.651Z,99.90
2022-10-11T20:11:09.656Z,99.90
2022-10-11T20:15:26.810Z,99.90
2022-10-11T20:19:44.063Z,99.90
2022-10-11T20:24:03.358Z,99.90
2022-10-11T20:28:20.632Z,99.90
2022-10-11T20:32:37.880Z,99.90
2022-10-11T20:36:55.421Z,99.90
2022-10-11T20:41:16.070Z,99.90
2022-10-11T20:45:33.261Z,99.90
2022-10-11T20:49:50.446Z,99.90
2022-10-11T20:54:08.211Z,99.90
2022-10-11T20:58:25.406Z,99.90
2022-10-11T21:02:42.606Z,99.90
2022-10-11T21:06:59.782Z,99.90
2022-10-11T21:11:16.945Z,99.90
2022-10-11T21:15:34.410Z,99.90
2022-10-11T21:19:51.568Z,99.90
2022-10-11T21:24:09.000Z,99.90
2022-10-11T21:28:26.203Z,99.90
2022-10-11T21:32:43.405Z,99.90
2022-10-11T21:37:00.601Z,99.90
2022-10-11T21:41:20.971Z,99.90
2022-10-11T21:45:38.613Z,99.90
2022-10-11T21:49:55.768Z,99.90
2022-10-11T21:54:12.923Z,99.90
2022-10-11T21:58:30.088Z,99.90
2022-10-11T22:02:47.602Z,99.90
2022-10-11T22:07:04.822Z,99.90
2022-10-11T22:11:22.142Z,99.90
2022-10-11T22:15:39.481Z,99.90
2022-10-11T22:19:56.682Z,99.90
2022-10-11T22:24:14.092Z,99.90
2022-10-11T22:28:31.755Z,99.90
2022-10-11T22:32:51.005Z,99.90
2022-10-11T22:37:08.284Z,99.90
2022-10-11T22:41:25.541Z,99.90
2022-10-11T22:45:42.796Z,99.90
2022-10-11T22:49:59.958Z,99.90
2022-10-11T22:54:17.143Z,99.90
2022-10-11T22:58:34.471Z,99.90
2022-10-11T23:02:51.643Z,99.90
2022-10-11T23:07:08.814Z,99.90
2022-10-11T23:11:25.991Z,99.90
2022-10-11T23:15:43.335Z,99.90
2022-10-11T23:20:00.577Z,99.90
2022-10-11T23:24:17.744Z,99.90
2022-10-11T23:28:35.623Z,99.90
2022-10-11T23:32:52.977Z,99.90
2022-10-11T23:37:10.239Z,99.90
2022-10-11T23:41:29.710Z,99.90
2022-10-11T23:45:46.872Z,99.90
2022-10-11T23:50:04.423Z,99.90
2022-10-11T23:54:21.619Z,99.90
2022-10-11T23:58:38.849Z,99.90
